LEGR/GRX METAR and TAF weather

Enter ICAO airport designator
Station Type Date Time Source
LEGR METAR 2022/05/24 11:00 UTC NOAA

LEGR 241100Z 29012KT 250V340 9999 FEW040 26/08 Q1012


Station Type Date Time Source
LEGR Decoded METAR 2022/05/24 11:00 UTC NOAA

Granada / Aeropuerto, Spain (LEGR) 37-11N 003-47W 570M
May 24, 2022 - 07:00 AM EDT / 2022.05.24 1100 UTC
Wind: from the WNW (290 degrees) at 14 MPH (12 KT) (direction variable):0
Visibility: greater than 7 mile(s):0
Sky conditions: mostly clear
Temperature: 78 F (26 C)
Dew Point: 46 F (8 C)
Relative Humidity: 31%
Pressure (altimeter): 29.88 in. Hg (1012 hPa)
ob: LEGR 241100Z 29012KT 250V340 9999 FEW040 26/08 Q1012
cycle: 11

Station Type Date Time Source
LEGR TAF 2022/05/24 12:27 UTC NOAA

TAF LEGR 241100Z 2412/2512 29014KT CAVOK TX30/2414Z TN12/2505Z PROB30
TEMPO 2414/2417 29015G25KT
BECMG 2419/2421 31004KT

Example: see airport list